sensor_id;sensor_type;location;lat;lon;timestamp;P1;durP1;ratioP1;P2;durP2;ratioP2
31282;SDS011;17915;52.540;13.604;2022-12-11T00:00:39;26.20;;;12.80;;
31282;SDS011;17915;52.540;13.604;2022-12-11T00:03:05;38.87;;;13.73;;
31282;SDS011;17915;52.540;13.604;2022-12-11T00:05:30;22.27;;;12.03;;
31282;SDS011;17915;52.540;13.604;2022-12-11T00:07:56;24.07;;;13.33;;
31282;SDS011;17915;52.540;13.604;2022-12-11T00:10:22;27.13;;;13.23;;
31282;SDS011;17915;52.540;13.604;2022-12-11T00:12:48;25.92;;;13.88;;
31282;SDS011;17915;52.540;13.604;2022-12-11T00:15:13;23.57;;;12.63;;
31282;SDS011;17915;52.540;13.604;2022-12-11T00:17:39;29.43;;;12.23;;
31282;SDS011;17915;52.540;13.604;2022-12-11T00:20:04;26.40;;;12.77;;
31282;SDS011;17915;52.540;13.604;2022-12-11T00:22:30;25.30;;;12.82;;
31282;SDS011;17915;52.540;13.604;2022-12-11T00:24:55;31.33;;;15.17;;
31282;SDS011;17915;52.540;13.604;2022-12-11T00:27:21;24.83;;;11.97;;
31282;SDS011;17915;52.540;13.604;2022-12-11T00:29:46;23.87;;;12.00;;
31282;SDS011;17915;52.540;13.604;2022-12-11T00:32:11;39.93;;;14.67;;
31282;SDS011;17915;52.540;13.604;2022-12-11T00:34:37;24.67;;;13.27;;
31282;SDS011;17915;52.540;13.604;2022-12-11T00:37:02;31.53;;;13.00;;
31282;SDS011;17915;52.540;13.604;2022-12-11T00:39:28;46.50;;;16.90;;
31282;SDS011;17915;52.540;13.604;2022-12-11T00:41:53;30.33;;;14.27;;
31282;SDS011;17915;52.540;13.604;2022-12-11T00:44:18;25.93;;;13.43;;
31282;SDS011;17915;52.540;13.604;2022-12-11T00:46:44;32.57;;;14.37;;
31282;SDS011;17915;52.540;13.604;2022-12-11T00:49:09;31.13;;;12.47;;
31282;SDS011;17915;52.540;13.604;2022-12-11T00:51:35;19.20;;;11.47;;
31282;SDS011;17915;52.540;13.604;2022-12-11T00:54:00;32.93;;;12.87;;
31282;SDS011;17915;52.540;13.604;2022-12-11T00:56:25;28.03;;;14.13;;
31282;SDS011;17915;52.540;13.604;2022-12-11T00:58:51;38.47;;;15.23;;
31282;SDS011;17915;52.540;13.604;2022-12-11T01:01:18;31.17;;;14.53;;
31282;SDS011;17915;52.540;13.604;2022-12-11T01:03:45;25.75;;;12.93;;
31282;SDS011;17915;52.540;13.604;2022-12-11T01:06:14;26.55;;;12.60;;
31282;SDS011;17915;52.540;13.604;2022-12-11T01:08:41;27.40;;;13.05;;
31282;SDS011;17915;52.540;13.604;2022-12-11T01:11:08;31.73;;;13.23;;
31282;SDS011;17915;52.540;13.604;2022-12-11T01:13:35;32.50;;;15.05;;
31282;SDS011;17915;52.540;13.604;2022-12-11T01:16:04;32.40;;;13.25;;
31282;SDS011;17915;52.540;13.604;2022-12-11T01:18:31;31.98;;;13.75;;
31282;SDS011;17915;52.540;13.604;2022-12-11T01:20:57;26.37;;;14.57;;
31282;SDS011;17915;52.540;13.604;2022-12-11T01:23:22;35.53;;;13.90;;
31282;SDS011;17915;52.540;13.604;2022-12-11T01:25:48;28.83;;;15.10;;
31282;SDS011;17915;52.540;13.604;2022-12-11T01:28:13;29.80;;;12.80;;
31282;SDS011;17915;52.540;13.604;2022-12-11T01:30:40;37.80;;;15.03;;
31282;SDS011;17915;52.540;13.604;2022-12-11T01:33:07;26.77;;;11.65;;
31282;SDS011;17915;52.540;13.604;2022-12-11T01:35:32;32.40;;;14.87;;
31282;SDS011;17915;52.540;13.604;2022-12-11T01:37:58;30.30;;;12.70;;
31282;SDS011;17915;52.540;13.604;2022-12-11T01:40:23;36.30;;;14.63;;
31282;SDS011;17915;52.540;13.604;2022-12-11T01:42:49;26.13;;;13.67;;
31282;SDS011;17915;52.540;13.604;2022-12-11T01:47:46;28.50;;;13.98;;
31282;SDS011;17915;52.540;13.604;2022-12-11T01:50:12;33.28;;;15.70;;
31282;SDS011;17915;52.540;13.604;2022-12-11T01:52:38;29.00;;;15.33;;
31282;SDS011;17915;52.540;13.604;2022-12-11T01:55:04;30.80;;;12.63;;
31282;SDS011;17915;52.540;13.604;2022-12-11T01:57:30;36.92;;;14.30;;
31282;SDS011;17915;52.540;13.604;2022-12-11T01:59:55;28.37;;;14.00;;
31282;SDS011;17915;52.540;13.604;2022-12-11T02:02:27;28.70;;;15.37;;
31282;SDS011;17915;52.540;13.604;2022-12-11T02:04:54;30.63;;;15.13;;
31282;SDS011;17915;52.540;13.604;2022-12-11T02:07:20;25.33;;;14.37;;
31282;SDS011;17915;52.540;13.604;2022-12-11T02:09:45;29.07;;;12.97;;
31282;SDS011;17915;52.540;13.604;2022-12-11T02:12:30;36.97;;;16.55;;
31282;SDS011;17915;52.540;13.604;2022-12-11T02:17:46;36.60;;;14.98;;
31282;SDS011;17915;52.540;13.604;2022-12-11T02:20:23;29.73;;;13.48;;
31282;SDS011;17915;52.540;13.604;2022-12-11T02:31:15;28.42;;;13.65;;
31282;SDS011;17915;52.540;13.604;2022-12-11T02:34:03;19.45;;;11.10;;
31282;SDS011;17915;52.540;13.604;2022-12-11T02:36:56;36.28;;;15.25;;
31282;SDS011;17915;52.540;13.604;2022-12-11T02:39:24;27.17;;;12.88;;
31282;SDS011;17915;52.540;13.604;2022-12-11T02:41:50;35.65;;;13.90;;
31282;SDS011;17915;52.540;13.604;2022-12-11T02:44:18;29.33;;;14.50;;
31282;SDS011;17915;52.540;13.604;2022-12-11T02:46:45;27.67;;;13.57;;
31282;SDS011;17915;52.540;13.604;2022-12-11T02:49:11;31.10;;;13.27;;
31282;SDS011;17915;52.540;13.604;2022-12-11T02:51:38;26.63;;;13.75;;
31282;SDS011;17915;52.540;13.604;2022-12-11T02:54:05;36.80;;;14.35;;
31282;SDS011;17915;52.540;13.604;2022-12-11T02:56:37;35.28;;;13.55;;
31282;SDS011;17915;52.540;13.604;2022-12-11T02:59:08;32.03;;;14.52;;
31282;SDS011;17915;52.540;13.604;2022-12-11T03:01:37;29.30;;;14.85;;
31282;SDS011;17915;52.540;13.604;2022-12-11T03:04:02;27.40;;;14.80;;
31282;SDS011;17915;52.540;13.604;2022-12-11T03:06:31;40.47;;;15.50;;
31282;SDS011;17915;52.540;13.604;2022-12-11T03:09:00;41.53;;;15.63;;
31282;SDS011;17915;52.540;13.604;2022-12-11T03:11:25;30.83;;;13.73;;
31282;SDS011;17915;52.540;13.604;2022-12-11T03:13:51;26.03;;;12.87;;
31282;SDS011;17915;52.540;13.604;2022-12-11T03:18:51;29.52;;;13.05;;
31282;SDS011;17915;52.540;13.604;2022-12-11T03:21:26;33.92;;;14.98;;
31282;SDS011;17915;52.540;13.604;2022-12-11T03:24:06;31.17;;;12.82;;
31282;SDS011;17915;52.540;13.604;2022-12-11T03:26:36;34.47;;;13.18;;
31282;SDS011;17915;52.540;13.604;2022-12-11T03:29:10;24.20;;;12.60;;
31282;SDS011;17915;52.540;13.604;2022-12-11T03:31:44;28.05;;;13.15;;
31282;SDS011;17915;52.540;13.604;2022-12-11T03:35:01;34.25;;;14.07;;
31282;SDS011;17915;52.540;13.604;2022-12-11T03:37:25;26.70;;;13.10;;
31282;SDS011;17915;52.540;13.604;2022-12-11T03:39:55;35.75;;;14.23;;
31282;SDS011;17915;52.540;13.604;2022-12-11T03:42:23;34.53;;;14.65;;
31282;SDS011;17915;52.540;13.604;2022-12-11T03:44:49;26.60;;;13.77;;
31282;SDS011;17915;52.540;13.604;2022-12-11T03:49:45;29.60;;;11.77;;
31282;SDS011;17915;52.540;13.604;2022-12-11T03:52:12;36.17;;;15.32;;
31282;SDS011;17915;52.540;13.604;2022-12-11T03:54:39;28.92;;;13.05;;
31282;SDS011;17915;52.540;13.604;2022-12-11T03:57:05;35.75;;;14.02;;
31282;SDS011;17915;52.540;13.604;2022-12-11T03:59:32;31.83;;;15.07;;
31282;SDS011;17915;52.540;13.604;2022-12-11T04:01:58;27.63;;;13.63;;
31282;SDS011;17915;52.540;13.604;2022-12-11T04:04:23;34.03;;;15.03;;
31282;SDS011;17915;52.540;13.604;2022-12-11T04:06:49;24.98;;;13.38;;
31282;SDS011;17915;52.540;13.604;2022-12-11T04:09:14;34.33;;;13.30;;
31282;SDS011;17915;52.540;13.604;2022-12-11T04:11:39;37.47;;;14.63;;
31282;SDS011;17915;52.540;13.604;2022-12-11T04:14:11;32.65;;;15.80;;
31282;SDS011;17915;52.540;13.604;2022-12-11T04:16:56;28.05;;;13.98;;
31282;SDS011;17915;52.540;13.604;2022-12-11T04:19:23;39.00;;;13.32;;
31282;SDS011;17915;52.540;13.604;2022-12-11T04:22:08;34.55;;;15.85;;
31282;SDS011;17915;52.540;13.604;2022-12-11T04:24:53;29.00;;;15.90;;
31282;SDS011;17915;52.540;13.604;2022-12-11T04:27:18;40.93;;;15.40;;
31282;SDS011;17915;52.540;13.604;2022-12-11T04:30:04;30.08;;;14.25;;
31282;SDS011;17915;52.540;13.604;2022-12-11T04:32:31;38.53;;;15.23;;
31282;SDS011;17915;52.540;13.604;2022-12-11T04:34:56;26.70;;;14.53;;
31282;SDS011;17915;52.540;13.604;2022-12-11T04:37:21;38.77;;;14.40;;
31282;SDS011;17915;52.540;13.604;2022-12-11T04:39:47;31.53;;;14.90;;
31282;SDS011;17915;52.540;13.604;2022-12-11T04:42:12;25.33;;;12.70;;
31282;SDS011;17915;52.540;13.604;2022-12-11T04:44:38;32.00;;;14.23;;
31282;SDS011;17915;52.540;13.604;2022-12-11T04:47:03;34.63;;;15.90;;
31282;SDS011;17915;52.540;13.604;2022-12-11T04:49:28;34.07;;;14.57;;
31282;SDS011;17915;52.540;13.604;2022-12-11T04:51:54;22.00;;;12.70;;
31282;SDS011;17915;52.540;13.604;2022-12-11T04:54:19;28.30;;;13.23;;
31282;SDS011;17915;52.540;13.604;2022-12-11T04:56:44;42.63;;;15.30;;
31282;SDS011;17915;52.540;13.604;2022-12-11T04:59:10;34.47;;;14.83;;
31282;SDS011;17915;52.540;13.604;2022-12-11T05:01:35;30.47;;;15.83;;
31282;SDS011;17915;52.540;13.604;2022-12-11T05:04:00;34.47;;;16.33;;
31282;SDS011;17915;52.540;13.604;2022-12-11T05:06:26;37.03;;;16.27;;
31282;SDS011;17915;52.540;13.604;2022-12-11T05:08:51;32.63;;;14.85;;
31282;SDS011;17915;52.540;13.604;2022-12-11T05:11:17;28.48;;;12.02;;
31282;SDS011;17915;52.540;13.604;2022-12-11T05:13:43;30.03;;;14.00;;
31282;SDS011;17915;52.540;13.604;2022-12-11T05:16:10;28.92;;;12.65;;
31282;SDS011;17915;52.540;13.604;2022-12-11T05:18:37;37.42;;;13.57;;
31282;SDS011;17915;52.540;13.604;2022-12-11T05:21:04;28.30;;;13.90;;
31282;SDS011;17915;52.540;13.604;2022-12-11T05:23:34;38.25;;;16.27;;
31282;SDS011;17915;52.540;13.604;2022-12-11T05:26:01;26.80;;;12.70;;
31282;SDS011;17915;52.540;13.604;2022-12-11T05:28:29;34.83;;;15.18;;
31282;SDS011;17915;52.540;13.604;2022-12-11T05:30:56;28.02;;;12.48;;
31282;SDS011;17915;52.540;13.604;2022-12-11T05:33:22;28.10;;;12.15;;
31282;SDS011;17915;52.540;13.604;2022-12-11T05:35:48;23.65;;;13.82;;
31282;SDS011;17915;52.540;13.604;2022-12-11T05:38:14;30.83;;;13.50;;
31282;SDS011;17915;52.540;13.604;2022-12-11T05:40:39;35.03;;;13.90;;
31282;SDS011;17915;52.540;13.604;2022-12-11T05:43:05;21.85;;;12.13;;
31282;SDS011;17915;52.540;13.604;2022-12-11T05:45:30;25.83;;;12.53;;
31282;SDS011;17915;52.540;13.604;2022-12-11T05:47:56;28.47;;;13.80;;
31282;SDS011;17915;52.540;13.604;2022-12-11T05:50:21;21.83;;;11.83;;
31282;SDS011;17915;52.540;13.604;2022-12-11T05:52:47;34.37;;;14.27;;
31282;SDS011;17915;52.540;13.604;2022-12-11T05:55:12;28.00;;;15.03;;
31282;SDS011;17915;52.540;13.604;2022-12-11T05:57:38;45.70;;;15.20;;
31282;SDS011;17915;52.540;13.604;2022-12-11T06:00:04;20.50;;;11.93;;
31282;SDS011;17915;52.540;13.604;2022-12-11T06:02:30;23.67;;;12.50;;
31282;SDS011;17915;52.540;13.604;2022-12-11T06:04:55;25.73;;;13.70;;
31282;SDS011;17915;52.540;13.604;2022-12-11T06:07:20;32.53;;;13.40;;
31282;SDS011;17915;52.540;13.604;2022-12-11T06:09:46;19.30;;;11.10;;
31282;SDS011;17915;52.540;13.604;2022-12-11T06:12:11;23.70;;;12.07;;
31282;SDS011;17915;52.540;13.604;2022-12-11T06:14:36;21.10;;;10.67;;
31282;SDS011;17915;52.540;13.604;2022-12-11T06:17:02;27.57;;;12.63;;
31282;SDS011;17915;52.540;13.604;2022-12-11T06:19:27;26.40;;;11.87;;
31282;SDS011;17915;52.540;13.604;2022-12-11T06:21:52;25.90;;;12.03;;
31282;SDS011;17915;52.540;13.604;2022-12-11T06:24:18;20.23;;;11.60;;
31282;SDS011;17915;52.540;13.604;2022-12-11T06:26:43;26.17;;;12.00;;
31282;SDS011;17915;52.540;13.604;2022-12-11T06:29:09;29.23;;;13.90;;
31282;SDS011;17915;52.540;13.604;2022-12-11T06:31:34;18.83;;;10.63;;
31282;SDS011;17915;52.540;13.604;2022-12-11T06:33:59;30.03;;;11.47;;
31282;SDS011;17915;52.540;13.604;2022-12-11T06:36:25;22.73;;;12.00;;
31282;SDS011;17915;52.540;13.604;2022-12-11T06:38:51;30.40;;;12.60;;
31282;SDS011;17915;52.540;13.604;2022-12-11T06:43:42;23.30;;;10.68;;
31282;SDS011;17915;52.540;13.604;2022-12-11T06:46:09;22.97;;;11.23;;
31282;SDS011;17915;52.540;13.604;2022-12-11T06:48:35;20.85;;;11.60;;
31282;SDS011;17915;52.540;13.604;2022-12-11T06:51:05;23.25;;;10.88;;
31282;SDS011;17915;52.540;13.604;2022-12-11T06:53:32;27.27;;;11.93;;
31282;SDS011;17915;52.540;13.604;2022-12-11T06:56:04;20.23;;;11.57;;
31282;SDS011;17915;52.540;13.604;2022-12-11T06:58:32;20.48;;;10.68;;
31282;SDS011;17915;52.540;13.604;2022-12-11T07:00:58;23.55;;;12.48;;
31282;SDS011;17915;52.540;13.604;2022-12-11T07:03:23;22.97;;;11.07;;
31282;SDS011;17915;52.540;13.604;2022-12-11T07:05:48;20.27;;;11.43;;
31282;SDS011;17915;52.540;13.604;2022-12-11T07:08:14;20.80;;;10.80;;
31282;SDS011;17915;52.540;13.604;2022-12-11T07:10:40;22.17;;;11.40;;
31282;SDS011;17915;52.540;13.604;2022-12-11T07:13:06;32.28;;;13.07;;
31282;SDS011;17915;52.540;13.604;2022-12-11T07:15:31;34.13;;;12.47;;
31282;SDS011;17915;52.540;13.604;2022-12-11T07:17:57;23.73;;;11.97;;
31282;SDS011;17915;52.540;13.604;2022-12-11T07:20:22;15.07;;;9.63;;
31282;SDS011;17915;52.540;13.604;2022-12-11T07:22:47;22.00;;;11.07;;
31282;SDS011;17915;52.540;13.604;2022-12-11T07:25:13;25.10;;;11.23;;
31282;SDS011;17915;52.540;13.604;2022-12-11T07:27:39;29.67;;;12.35;;
31282;SDS011;17915;52.540;13.604;2022-12-11T07:30:05;19.27;;;12.38;;
31282;SDS011;17915;52.540;13.604;2022-12-11T07:32:31;14.45;;;9.55;;
31282;SDS011;17915;52.540;13.604;2022-12-11T07:34:56;22.03;;;10.50;;
31282;SDS011;17915;52.540;13.604;2022-12-11T07:37:22;28.20;;;13.07;;
31282;SDS011;17915;52.540;13.604;2022-12-11T07:39:47;29.00;;;12.27;;
31282;SDS011;17915;52.540;13.604;2022-12-11T07:42:14;21.33;;;11.38;;
31282;SDS011;17915;52.540;13.604;2022-12-11T07:44:39;24.03;;;10.33;;
31282;SDS011;17915;52.540;13.604;2022-12-11T07:47:05;27.27;;;12.07;;
31282;SDS011;17915;52.540;13.604;2022-12-11T07:49:30;24.53;;;11.63;;
31282;SDS011;17915;52.540;13.604;2022-12-11T07:51:55;21.47;;;12.40;;
31282;SDS011;17915;52.540;13.604;2022-12-11T07:54:21;24.92;;;11.85;;
31282;SDS011;17915;52.540;13.604;2022-12-11T07:56:46;26.40;;;11.03;;
31282;SDS011;17915;52.540;13.604;2022-12-11T07:59:12;26.08;;;11.18;;
31282;SDS011;17915;52.540;13.604;2022-12-11T08:01:38;20.20;;;10.90;;
31282;SDS011;17915;52.540;13.604;2022-12-11T08:04:05;16.98;;;9.02;;
31282;SDS011;17915;52.540;13.604;2022-12-11T08:06:32;15.90;;;9.55;;
31282;SDS011;17915;52.540;13.604;2022-12-11T08:09:00;24.48;;;10.20;;
31282;SDS011;17915;52.540;13.604;2022-12-11T08:11:27;18.45;;;10.57;;
31282;SDS011;17915;52.540;13.604;2022-12-11T08:16:18;21.38;;;9.85;;
31282;SDS011;17915;52.540;13.604;2022-12-11T08:18:44;20.80;;;9.93;;
31282;SDS011;17915;52.540;13.604;2022-12-11T08:21:17;17.70;;;9.82;;
31282;SDS011;17915;52.540;13.604;2022-12-11T08:23:47;22.33;;;10.48;;
31282;SDS011;17915;52.540;13.604;2022-12-11T08:28:42;15.02;;;9.02;;
31282;SDS011;17915;52.540;13.604;2022-12-11T08:33:33;22.33;;;9.15;;
31282;SDS011;17915;52.540;13.604;2022-12-11T08:36:07;18.42;;;9.85;;
31282;SDS011;17915;52.540;13.604;2022-12-11T08:38:34;20.50;;;9.43;;
31282;SDS011;17915;52.540;13.604;2022-12-11T08:43:33;27.17;;;10.45;;
31282;SDS011;17915;52.540;13.604;2022-12-11T08:45:58;19.90;;;8.63;;
31282;SDS011;17915;52.540;13.604;2022-12-11T08:48:23;12.93;;;8.37;;
31282;SDS011;17915;52.540;13.604;2022-12-11T08:50:49;19.85;;;10.18;;
31282;SDS011;17915;52.540;13.604;2022-12-11T08:53:15;18.90;;;10.10;;
31282;SDS011;17915;52.540;13.604;2022-12-11T08:55:40;14.17;;;8.97;;
31282;SDS011;17915;52.540;13.604;2022-12-11T08:58:06;17.13;;;10.43;;
31282;SDS011;17915;52.540;13.604;2022-12-11T09:00:31;13.17;;;9.07;;
31282;SDS011;17915;52.540;13.604;2022-12-11T09:02:57;18.60;;;11.17;;
31282;SDS011;17915;52.540;13.604;2022-12-11T09:05:22;22.60;;;10.03;;
31282;SDS011;17915;52.540;13.604;2022-12-11T09:07:47;23.37;;;9.57;;
31282;SDS011;17915;52.540;13.604;2022-12-11T09:10:13;12.82;;;7.78;;
31282;SDS011;17915;52.540;13.604;2022-12-11T09:12:38;18.67;;;9.53;;
31282;SDS011;17915;52.540;13.604;2022-12-11T09:15:04;23.27;;;8.87;;
31282;SDS011;17915;52.540;13.604;2022-12-11T09:17:29;16.98;;;9.18;;
31282;SDS011;17915;52.540;13.604;2022-12-11T09:19:55;12.07;;;8.90;;
31282;SDS011;17915;52.540;13.604;2022-12-11T09:22:20;20.20;;;9.23;;
31282;SDS011;17915;52.540;13.604;2022-12-11T09:24:46;17.97;;;9.03;;
31282;SDS011;17915;52.540;13.604;2022-12-11T09:27:11;18.20;;;9.67;;
31282;SDS011;17915;52.540;13.604;2022-12-11T09:29:37;20.73;;;8.87;;
31282;SDS011;17915;52.540;13.604;2022-12-11T09:32:03;24.25;;;10.15;;
31282;SDS011;17915;52.540;13.604;2022-12-11T09:34:29;22.70;;;10.10;;
31282;SDS011;17915;52.540;13.604;2022-12-11T09:36:54;17.77;;;9.65;;
31282;SDS011;17915;52.540;13.604;2022-12-11T09:39:20;19.13;;;10.53;;
31282;SDS011;17915;52.540;13.604;2022-12-11T09:46:56;16.80;;;9.15;;
31282;SDS011;17915;52.540;13.604;2022-12-11T09:52:33;17.10;;;9.80;;
31282;SDS011;17915;52.540;13.604;2022-12-11T09:54:51;22.23;;;11.15;;
31282;SDS011;17915;52.540;13.604;2022-12-11T10:11:19;15.48;;;8.45;;
31282;SDS011;17915;52.540;13.604;2022-12-11T10:13:54;13.38;;;7.63;;
31282;SDS011;17915;52.540;13.604;2022-12-11T10:16:39;16.10;;;8.75;;
31282;SDS011;17915;52.540;13.604;2022-12-11T10:19:05;14.57;;;9.23;;
31282;SDS011;17915;52.540;13.604;2022-12-11T10:21:39;14.02;;;7.88;;
31282;SDS011;17915;52.540;13.604;2022-12-11T10:24:09;22.50;;;11.60;;
31282;SDS011;17915;52.540;13.604;2022-12-11T10:26:40;19.90;;;9.18;;
31282;SDS011;17915;52.540;13.604;2022-12-11T10:29:09;17.70;;;9.40;;
31282;SDS011;17915;52.540;13.604;2022-12-11T10:31:52;18.67;;;9.75;;
31282;SDS011;17915;52.540;13.604;2022-12-11T10:34:34;23.02;;;9.75;;
31282;SDS011;17915;52.540;13.604;2022-12-11T10:37:01;20.08;;;8.60;;
31282;SDS011;17915;52.540;13.604;2022-12-11T10:39:27;21.60;;;12.18;;
31282;SDS011;17915;52.540;13.604;2022-12-11T10:41:53;24.33;;;10.75;;
31282;SDS011;17915;52.540;13.604;2022-12-11T10:46:47;20.85;;;9.48;;
31282;SDS011;17915;52.540;13.604;2022-12-11T10:49:25;26.08;;;10.55;;
31282;SDS011;17915;52.540;13.604;2022-12-11T10:51:54;21.40;;;11.40;;
31282;SDS011;17915;52.540;13.604;2022-12-11T10:56:59;19.63;;;10.20;;
31282;SDS011;17915;52.540;13.604;2022-12-11T10:59:36;20.08;;;9.40;;
31282;SDS011;17915;52.540;13.604;2022-12-11T11:02:04;22.83;;;10.70;;
31282;SDS011;17915;52.540;13.604;2022-12-11T11:04:40;17.52;;;10.07;;
31282;SDS011;17915;52.540;13.604;2022-12-11T11:07:13;17.02;;;9.55;;
31282;SDS011;17915;52.540;13.604;2022-12-11T11:09:39;26.55;;;12.15;;
31282;SDS011;17915;52.540;13.604;2022-12-11T11:12:15;21.27;;;10.27;;
31282;SDS011;17915;52.540;13.604;2022-12-11T11:15:02;17.65;;;10.25;;
31282;SDS011;17915;52.540;13.604;2022-12-11T11:17:30;19.92;;;11.38;;
31282;SDS011;17915;52.540;13.604;2022-12-11T11:19:56;20.35;;;10.73;;
31282;SDS011;17915;52.540;13.604;2022-12-11T11:22:24;20.48;;;11.23;;
31282;SDS011;17915;52.540;13.604;2022-12-11T11:24:55;15.02;;;8.93;;
31282;SDS011;17915;52.540;13.604;2022-12-11T11:29:47;21.93;;;12.17;;
31282;SDS011;17915;52.540;13.604;2022-12-11T11:32:18;17.85;;;9.43;;
31282;SDS011;17915;52.540;13.604;2022-12-11T11:34:45;22.40;;;10.18;;
31282;SDS011;17915;52.540;13.604;2022-12-11T11:37:20;15.23;;;9.33;;
31282;SDS011;17915;52.540;13.604;2022-12-11T11:39:56;16.15;;;10.02;;
31282;SDS011;17915;52.540;13.604;2022-12-11T11:42:32;16.15;;;9.48;;
31282;SDS011;17915;52.540;13.604;2022-12-11T11:45:14;15.48;;;8.68;;
31282;SDS011;17915;52.540;13.604;2022-12-11T11:47:47;20.08;;;9.13;;
31282;SDS011;17915;52.540;13.604;2022-12-11T11:50:18;16.77;;;8.32;;
31282;SDS011;17915;52.540;13.604;2022-12-11T11:58:31;19.20;;;9.77;;
31282;SDS011;17915;52.540;13.604;2022-12-11T12:01:04;17.15;;;10.50;;
31282;SDS011;17915;52.540;13.604;2022-12-11T12:03:29;17.67;;;10.80;;
31282;SDS011;17915;52.540;13.604;2022-12-11T12:08:49;25.20;;;11.55;;
31282;SDS011;17915;52.540;13.604;2022-12-11T12:11:37;21.38;;;9.52;;
31282;SDS011;17915;52.540;13.604;2022-12-11T12:17:05;17.70;;;9.73;;
31282;SDS011;17915;52.540;13.604;2022-12-11T12:19:53;18.73;;;9.90;;
31282;SDS011;17915;52.540;13.604;2022-12-11T12:22:27;20.98;;;9.82;;
31282;SDS011;17915;52.540;13.604;2022-12-11T12:25:09;22.27;;;11.23;;
31282;SDS011;17915;52.540;13.604;2022-12-11T12:27:49;13.18;;;7.97;;
31282;SDS011;17915;52.540;13.604;2022-12-11T12:30:18;18.15;;;9.88;;
31282;SDS011;17915;52.540;13.604;2022-12-11T12:35:34;18.35;;;10.20;;
31282;SDS011;17915;52.540;13.604;2022-12-11T12:38:05;19.80;;;10.80;;
31282;SDS011;17915;52.540;13.604;2022-12-11T12:46:22;22.08;;;10.95;;
31282;SDS011;17915;52.540;13.604;2022-12-11T12:48:53;15.68;;;10.27;;
31282;SDS011;17915;52.540;13.604;2022-12-11T12:51:19;14.68;;;9.20;;
31282;SDS011;17915;52.540;13.604;2022-12-11T12:54:18;18.33;;;10.18;;
31282;SDS011;17915;52.540;13.604;2022-12-11T12:56:38;22.60;;;10.70;;
31282;SDS011;17915;52.540;13.604;2022-12-11T12:59:06;28.77;;;11.90;;
31282;SDS011;17915;52.540;13.604;2022-12-11T13:01:50;19.40;;;10.77;;
31282;SDS011;17915;52.540;13.604;2022-12-11T13:04:26;17.35;;;9.30;;
31282;SDS011;17915;52.540;13.604;2022-12-11T13:06:52;24.08;;;13.25;;
31282;SDS011;17915;52.540;13.604;2022-12-11T13:09:21;18.90;;;9.83;;
31282;SDS011;17915;52.540;13.604;2022-12-11T13:11:48;23.33;;;11.30;;
31282;SDS011;17915;52.540;13.604;2022-12-11T13:16:46;21.83;;;10.57;;
31282;SDS011;17915;52.540;13.604;2022-12-11T13:21:57;21.25;;;10.57;;
31282;SDS011;17915;52.540;13.604;2022-12-11T13:25:00;20.15;;;9.85;;
31282;SDS011;17915;52.540;13.604;2022-12-11T13:27:39;19.60;;;9.40;;
31282;SDS011;17915;52.540;13.604;2022-12-11T13:32:40;17.02;;;9.45;;
31282;SDS011;17915;52.540;13.604;2022-12-11T13:35:12;21.13;;;10.80;;
31282;SDS011;17915;52.540;13.604;2022-12-11T13:37:43;19.65;;;10.23;;
31282;SDS011;17915;52.540;13.604;2022-12-11T13:40:24;16.98;;;9.30;;
31282;SDS011;17915;52.540;13.604;2022-12-11T13:42:53;27.38;;;10.32;;
31282;SDS011;17915;52.540;13.604;2022-12-11T13:50:56;18.33;;;9.35;;
31282;SDS011;17915;52.540;13.604;2022-12-11T13:53:22;28.67;;;12.18;;
31282;SDS011;17915;52.540;13.604;2022-12-11T13:55:57;19.75;;;10.30;;
31282;SDS011;17915;52.540;13.604;2022-12-11T13:58:33;19.23;;;10.05;;
31282;SDS011;17915;52.540;13.604;2022-12-11T14:03:30;23.02;;;10.30;;
31282;SDS011;17915;52.540;13.604;2022-12-11T14:08:23;21.23;;;9.13;;
31282;SDS011;17915;52.540;13.604;2022-12-11T14:11:00;21.30;;;11.52;;
31282;SDS011;17915;52.540;13.604;2022-12-11T14:13:27;18.23;;;9.43;;
31282;SDS011;17915;52.540;13.604;2022-12-11T14:15:56;15.77;;;9.93;;
31282;SDS011;17915;52.540;13.604;2022-12-11T14:18:22;20.43;;;10.90;;
31282;SDS011;17915;52.540;13.604;2022-12-11T14:20:56;20.60;;;12.88;;
31282;SDS011;17915;52.540;13.604;2022-12-11T14:23:23;23.70;;;12.43;;
31282;SDS011;17915;52.540;13.604;2022-12-11T14:28:23;19.98;;;9.90;;
31282;SDS011;17915;52.540;13.604;2022-12-11T14:30:52;19.45;;;11.15;;
31282;SDS011;17915;52.540;13.604;2022-12-11T14:33:24;20.45;;;10.18;;
31282;SDS011;17915;52.540;13.604;2022-12-11T14:35:52;24.63;;;10.68;;
31282;SDS011;17915;52.540;13.604;2022-12-11T14:38:20;22.55;;;11.20;;
31282;SDS011;17915;52.540;13.604;2022-12-11T14:40:51;17.00;;;10.07;;
31282;SDS011;17915;52.540;13.604;2022-12-11T14:43:20;25.95;;;11.45;;
31282;SDS011;17915;52.540;13.604;2022-12-11T14:45:48;22.60;;;10.38;;
31282;SDS011;17915;52.540;13.604;2022-12-11T14:48:22;21.48;;;11.98;;
31282;SDS011;17915;52.540;13.604;2022-12-11T14:50:50;20.08;;;10.25;;
31282;SDS011;17915;52.540;13.604;2022-12-11T14:53:59;18.45;;;10.90;;
31282;SDS011;17915;52.540;13.604;2022-12-11T14:56:07;22.10;;;11.75;;
31282;SDS011;17915;52.540;13.604;2022-12-11T14:58:37;21.70;;;11.07;;
31282;SDS011;17915;52.540;13.604;2022-12-11T15:01:19;22.95;;;12.13;;
31282;SDS011;17915;52.540;13.604;2022-12-11T15:03:45;22.70;;;11.45;;
31282;SDS011;17915;52.540;13.604;2022-12-11T15:06:25;23.27;;;10.87;;
31282;SDS011;17915;52.540;13.604;2022-12-11T15:08:53;30.70;;;12.13;;
31282;SDS011;17915;52.540;13.604;2022-12-11T15:11:18;23.80;;;11.43;;
31282;SDS011;17915;52.540;13.604;2022-12-11T15:13:51;19.17;;;11.07;;
31282;SDS011;17915;52.540;13.604;2022-12-11T15:16:22;19.77;;;10.93;;
31282;SDS011;17915;52.540;13.604;2022-12-11T15:18:49;18.35;;;10.38;;
31282;SDS011;17915;52.540;13.604;2022-12-11T15:21:15;18.10;;;10.18;;
31282;SDS011;17915;52.540;13.604;2022-12-11T15:26:10;22.55;;;10.80;;
31282;SDS011;17915;52.540;13.604;2022-12-11T15:28:36;26.77;;;13.13;;
31282;SDS011;17915;52.540;13.604;2022-12-11T15:31:03;20.55;;;10.35;;
31282;SDS011;17915;52.540;13.604;2022-12-11T15:33:30;27.48;;;11.35;;
31282;SDS011;17915;52.540;13.604;2022-12-11T15:36:04;24.50;;;13.13;;
31282;SDS011;17915;52.540;13.604;2022-12-11T15:38:34;23.45;;;10.23;;
31282;SDS011;17915;52.540;13.604;2022-12-11T15:41:03;20.15;;;11.82;;
31282;SDS011;17915;52.540;13.604;2022-12-11T15:43:30;25.15;;;13.10;;
31282;SDS011;17915;52.540;13.604;2022-12-11T15:46:00;19.70;;;10.55;;
31282;SDS011;17915;52.540;13.604;2022-12-11T15:48:26;21.05;;;11.55;;
31282;SDS011;17915;52.540;13.604;2022-12-11T15:50:51;22.77;;;13.30;;
31282;SDS011;17915;52.540;13.604;2022-12-11T15:53:17;23.10;;;11.17;;
31282;SDS011;17915;52.540;13.604;2022-12-11T15:55:42;29.03;;;13.97;;
31282;SDS011;17915;52.540;13.604;2022-12-11T15:58:10;22.20;;;11.83;;
31282;SDS011;17915;52.540;13.604;2022-12-11T16:00:38;21.17;;;11.13;;
31282;SDS011;17915;52.540;13.604;2022-12-11T16:03:03;24.97;;;12.50;;